Latest Coastal Weather Observations for Cape Borda

IDT60701

Issued at 9:05 am EDT Thursday 23 October 2014 (issued every 10 minutes, with the page automatically refreshed every 10 minutes)

About coastal observations | Map of coastal stations | Coastal observations for TAS | Marine services | Other Formats
Station Details ID: 022823 Name: CAPE BORDA Lat: -35.75 Lon: 136.60 Height: 158.0 m
Data from the previous 72 hours. | See also: Recent months at Cape Borda
Date/Time
EDT
Temp

°C
Wind Pressure Rain
since 9am
mm
Weather Cloud Vis
km
Sea
Height
m
Swell
Dir
 
Speed
knots
Gust
knots
hPa Trend Height
m
Period
s
Dir
23/09:00am 13.5 SE 11 16 1019.3 - 0.0 - - - - - - -
23/08:30am 13.1 ESE 13 19 1019.3 - 0.0 - - - - - - -
23/08:00am 12.7 SE 9 14 1019.1 - 0.0 - - - - - - -
23/07:30am 12.7 SE 10 15 1019.1 - 0.0 - - - - - - -
23/07:00am 12.6 SE 11 16 1019.3 - 0.0 - - - - - - -
23/06:30am 12.6 ESE 12 16 1018.9 F 0.0 Fine Cloudy 20 1 4.2 7 SW
23/06:00am 12.5 ESE 11 15 1019.2 - 0.0 - - - - - - -
23/05:30am 12.5 ESE 7 10 1019.4 - 0.0 - - - - - - -
23/05:00am 12.4 SE 12 18 1019.1 - 0.0 - - - - - - -
23/04:30am 12.6 SSE 7 9 1019.3 - 0.0 - - - - - - -
23/04:00am 12.5 SE 11 16 1018.8 - 0.0 - - - - - - -
23/03:30am 12.6 SE 13 18 1019.3 - 0.0 - - - - - - -
23/03:00am 12.4 SE 10 15 1019.9 - 0.0 - - - - - - -
23/02:30am 12.7 SSE 10 15 1020.5 - 0.0 - - - - - - -
23/02:00am 12.7 SSE 11 16 1021.1 - 0.0 - - - - - - -
23/01:30am 12.7 SSE 10 16 1021.5 - 0.0 - - - - - - -
23/01:00am 12.6 SSE 11 17 1021.5 - 0.0 - - - - - - -
23/12:30am 12.4 SSE 11 17 1021.4 - 0.0 - - - - - - -
23/12:00am 12.4 SSE 10 15 1021.8 - 0.0 - - - - - - -
 
Date/Time
EDT
Temp

°C
Wind Pressure Rain
since 9am
mm
Weather Cloud Vis
km
Sea
Height
m
Swell
Dir
 
Speed
knots
Gust
knots
hPa Trend Height
m
Period
s
Dir
22/11:30pm 12.3 SSE 10 16 1021.6 - 0.0 - - - - - - -
22/11:00pm 12.3 SSE 12 19 1021.6 - 0.0 - - - - - - -
22/10:30pm 12.7 SSE 12 17 1021.6 - 0.0 - - - - - - -
22/10:00pm 12.5 SSE 14 20 1021.4 - 0.0 - - - - - - -
22/09:30pm 12.8 SSE 12 18 1021.1 - 0.0 - - - - - - -
22/09:00pm 13.0 SSE 11 18 1021.2 - 0.0 - - - - - - -
22/08:30pm 13.1 SSE 13 19 1020.6 - 0.0 - - - - - - -
22/08:00pm 13.2 SSE 14 22 1020.2 - 0.0 - - - - - - -
22/07:30pm 13.5 SSE 17 25 1020.0 - 0.0 - - - - - - -
22/07:00pm 14.1 SSE 17 23 1019.9 - 0.0 - - - - - - -
22/06:30pm 15.2 SSE 17 23 1019.5 - 0.0 - - - - - - -
22/06:00pm 15.5 SSE 18 26 1019.3 - 0.0 - - - - - - -
22/05:30pm 16.9 SSE 17 23 1019.3 - 0.0 - - - - - - -
22/05:00pm 17.6 S 19 25 1019.2 - 0.0 - - - - - - -
22/04:30pm 17.4 S 19 28 1019.3 - 0.0 - - - - - - -
22/04:08pm 17.5 S 18 28 1019.4 - 0.0 - - - - - - -
22/04:00pm 17.8 S 19 26 1019.6 - 0.0 - - - - - - -
22/03:30pm 17.1 S 22 29 1019.4 R 0.0 Fine Partly cloudy 18 1 2.8 6 S
22/03:00pm 18.3 S 18 26 1019.5 - 0.0 - - - - - - -
22/02:30pm 17.8 S 18 25 1019.6 - 0.0 - - - - - - -
22/02:14pm 18.6 S 15 25 1019.6 - 0.0 - - - - - - -
22/02:00pm 18.1 S 17 24 1019.6 - 0.0 - - - - - - -
22/01:30pm 16.6 S 22 29 1019.3 - 0.0 - - - - - - -
22/01:00pm 16.1 S 23 31 1019.4 - 0.0 - - - - - - -
22/12:30pm 16.5 S 21 29 1019.3 - 0.0 - - - - - - -
22/12:00pm 15.3 S 22 29 1019.2 - 0.0 - - - - - - -
22/11:30am 14.2 S 23 31 1019.2 - 0.0 - - - - - - -
22/11:00am 13.7 S 21 29 1019.2 - 0.0 - - - - - - -
22/10:30am 14.0 S 20 29 1019.3 - 0.0 - - - - - - -
22/10:13am 15.0 S 19 29 1018.8 - 0.0 - - - - - - -
22/10:00am 14.9 S 21 28 1018.4 - 0.0 - - - - - - -
22/09:30am 15.5 S 20 28 1018.3 R 0.0 Fine Partly cloudy 15 1 2.5 6 SW
22/09:00am 14.3 SSE 21 27 1018.2 - 0.0 - - - - - - -
22/08:31am 13.5 S 19 29 1018.1 - 0.0 - - - - - - -
22/08:30am 13.5 S 19 27 1018.1 - 0.0 - - - - - - -
22/08:00am 13.1 S 21 28 1017.9 - 0.0 - - - - - - -
22/07:30am 13.1 S 21 31 1017.5 - 0.0 - - - - - - -
22/07:28am 13.1 S 21 31 1017.5 - 0.0 - - - - - - -
22/07:00am 13.3 SSE 21 30 1017.5 - 0.0 - - - - - - -
22/06:30am 13.6 S 21 29 1017.1 - 0.0 - - - - - - -
22/06:00am 13.7 S 21 26 1016.7 - 0.0 - - - - - - -
22/05:30am 14.0 S 19 25 1016.6 - 0.0 - - - - - - -
22/05:00am 14.1 S 19 26 1016.2 - 0.0 - - - - - - -
22/04:30am 14.6 S 20 26 1016.1 - 0.0 - - - - - - -
22/04:00am 15.6 S 20 27 1016.3 - 0.0 - - - - - - -
22/03:44am 16.5 S 19 29 1016.4 - 0.0 - - - - - - -
22/03:30am 17.5 S 18 24 1016.5 - 0.0 - - - - - - -
22/03:00am 18.0 S 19 25 1016.5 - 0.0 - - - - - - -
22/02:30am 17.8 S 19 25 1017.0 - 0.0 - - - - - - -
22/02:00am 17.6 S 19 25 1017.1 - 0.0 - - - - - - -
22/01:30am 18.0 S 20 28 1016.6 - 0.0 - - - - - - -
22/01:00am 18.7 S 16 24 1017.1 - 0.0 - - - - - - -
22/12:33am 22.5 SSW 16 26 1017.2 - 0.0 - - - - - - -
22/12:30am 22.4 W 16 24 1017.1 - 0.0 - - - - - - -
22/12:00am 22.7 ESE 9 10 1016.7 - 0.0 - - - - - - -
 
Date/Time
EDT
Temp

°C
Wind Pressure Rain
since 9am
mm
Weather Cloud Vis
km
Sea
Height
m
Swell
Dir
 
Speed
knots
Gust
knots
hPa Trend Height
m
Period
s
Dir
21/11:30pm 22.8 ESE 12 16 1016.8 - 0.0 - - - - - - -
21/11:00pm 24.5 ESE 14 18 1017.7 - 0.0 - - - - - - -
21/10:30pm 21.1 SSE 15 19 1017.8 - 0.0 - - - - - - -
21/10:00pm 20.0 S 15 20 1018.0 - 0.0 - - - - - - -
21/09:30pm 20.0 SW 17 25 1018.2 - 0.0 - - - - - - -
21/09:00pm 22.0 S 14 24 1017.0 - 0.0 - - - - - - -
21/08:55pm 21.6 S 15 24 1016.8 - 0.0 - - - - - - -
21/08:30pm 25.4 NE 7 8 1016.5 - 0.0 - - - - - - -
21/08:00pm 25.1 ENE 9 10 1016.0 - 0.0 - - - - - - -
21/07:30pm 24.9 ESE 8 12 1015.6 - 0.0 - - - - - - -
21/07:00pm 24.9 ENE 10 16 1016.5 - 0.0 - - - - - - -
21/06:30pm 26.1 ENE 9 13 1016.4 - 0.0 - - - - - - -
21/06:00pm 27.5 ENE 9 12 1016.1 - 0.0 - - - - - - -
21/05:30pm 28.7 N 7 9 1016.4 - 0.0 - - - - - - -
21/05:00pm 28.4 NE 10 13 1016.4 - 0.0 - - - - - - -
21/04:30pm 28.1 NE 10 14 1016.6 - 0.0 - - - - - - -
21/04:00pm 28.5 ENE 12 16 1016.6 - 0.0 - - - - - - -
21/03:30pm 28.1 NE 13 18 1016.8 F 0.0 Fine Mostly cloudy 25 <0.1 2.8 6 SW
21/03:00pm 29.4 NE 13 17 1017.3 - 0.0 - - - - - - -
21/02:30pm 29.0 NE 14 18 1017.4 - 0.0 - - - - - - -
21/02:00pm 27.8 NE 14 20 1017.9 - 0.0 - - - - - - -
21/01:30pm 26.8 NE 14 18 1018.1 - 0.0 - - - - - - -
21/01:00pm 27.3 NE 13 18 1018.6 - 0.0 - - - - - - -
21/12:30pm 27.7 NE 13 19 1018.7 - 0.0 - - - - - - -
21/12:00pm 27.1 NE 15 19 1018.8 - 0.0 - - - - - - -
21/11:30am 26.4 ENE 15 21 1019.0 - 0.0 - - - - - - -
21/11:00am 23.3 ENE 14 20 1019.0 - 0.0 - - - - - - -
21/10:30am 23.0 ENE 15 21 1019.0 - 0.0 - - - - - - -
21/10:00am 22.0 ENE 16 20 1019.0 - 0.0 - - - - - - -
21/09:30am 22.6 ENE 17 23 1018.9 R 0.0 Fine Mostly cloudy 20 1 2.6 6 SW
21/09:00am 22.1 ENE 16 22 1019.0 - 0.0 - - - - - - -
21/08:30am 21.9 ENE 17 25 1019.0 - 0.0 - - - - - - -
21/08:00am 21.7 ENE 17 23 1019.0 - 0.0 - - - - - - -
21/07:48am 21.8 ENE 17 27 1018.8 - 0.0 - - - - - - -
21/07:30am 22.2 ENE 18 25 1018.3 - 0.0 - - - - - - -
21/07:00am 22.3 ENE 19 26 1017.7 - 0.0 - - - - - - -
21/06:35am 22.5 ENE 18 28 1017.6 - 0.0 - - - - - - -
21/06:30am 22.5 ENE 18 26 1017.6 F 0.0 Fine Partly cloudy 18 1 3.3 6 SW
21/06:00am 22.9 ENE 18 28 1017.3 - 0.0 - - - - - - -
21/05:57am 22.8 ENE 18 28 1017.3 - 0.0 - - - - - - -
21/05:30am 23.2 ENE 19 26 1017.2 - 0.0 - - - - - - -
21/05:00am 22.9 ENE 19 25 1017.1 - 0.0 - - - - - - -
21/04:45am 23.1 ENE 19 29 1017.2 - 0.0 - - - - - - -
21/04:30am 22.9 ENE 19 25 1017.3 - 0.0 - - - - - - -
21/04:00am 22.7 ENE 18 26 1017.6 - 0.0 - - - - - - -
21/03:30am 22.7 E 17 25 1017.7 - 0.0 - - - - - - -
21/03:04am 23.0 ENE 18 28 1018.1 - 0.0 - - - - - - -
21/03:00am 23.2 ENE 19 28 1018.2 - 0.0 - - - - - - -
21/02:30am 23.4 E 18 26 1018.4 - 0.0 - - - - - - -
21/02:19am 23.7 E 18 29 1018.4 - 0.0 - - - - - - -
21/02:00am 23.2 E 18 25 1018.5 - 0.0 - - - - - - -
21/01:30am 23.5 E 19 25 1018.9 - 0.0 - - - - - - -
21/01:20am 23.5 E 18 28 1019.1 - 0.0 - - - - - - -
21/01:00am 23.5 E 17 25 1019.4 - 0.0 - - - - - - -
21/12:33am 23.6 E 17 29 1019.7 - 0.0 - - - - - - -
21/12:30am 23.6 E 17 25 1019.7 - 0.0 - - - - - - -
21/12:20am 22.4 E 15 26 1019.8 - 0.0 - - - - - - -
21/12:00am 21.6 E 15 21 1020.0 - 0.0 - - - - - - -
 
Date/Time
EDT
Temp

°C
Wind Pressure Rain
since 9am
mm
Weather Cloud Vis
km
Sea
Height
m
Swell
Dir
 
Speed
knots
Gust
knots
hPa Trend Height
m
Period
s
Dir
20/11:30pm 21.7 E 15 21 1020.2 - 0.0 - - - - - - -
20/11:00pm 19.9 E 15 20 1020.4 - 0.0 - - - - - - -
20/10:30pm 20.1 E 15 19 1020.6 - 0.0 - - - - - - -
20/10:00pm 19.6 E 15 19 1020.5 - 0.0 - - - - - - -
20/09:30pm 18.5 ESE 14 19 1020.3 - 0.0 - - - - - - -
20/09:00pm 18.1 ESE 14 18 1020.0 - 0.0 - - - - - - -
20/08:30pm 18.4 ESE 14 18 1020.1 - 0.0 - - - - - - -
20/08:00pm 19.6 ESE 12 15 1020.0 - 0.0 - - - - - - -
20/07:30pm 22.6 E 9 11 1020.0 - 0.0 - - - - - - -
20/07:00pm 25.1 E 8 11 1020.0 - 0.0 - - - - - - -
20/06:30pm 25.9 E 7 10 1020.0 - 0.0 - - - - - - -
20/06:00pm 25.0 ENE 9 12 1020.1 - 0.0 - - - - - - -
20/05:30pm 24.9 ENE 9 13 1020.1 - 0.0 - - - - - - -
20/05:00pm 25.3 ENE 11 14 1020.5 - 0.0 - - - - - - -
20/04:30pm 25.1 ENE 11 15 1020.8 - 0.0 - - - - - - -
20/04:00pm 26.0 ENE 11 14 1021.0 - 0.0 - - - - - - -
20/03:30pm 24.9 ENE 11 15 1021.1 F 0.0 Fine Partly cloudy 15 1 4.2 6 SW
20/03:00pm 25.5 ENE 11 14 1021.7 - 0.0 - - - - - - -
20/02:30pm 25.1 ENE 9 13 1022.1 - 0.0 - - - - - - -
20/02:00pm 24.3 ENE 9 13 1022.5 - 0.0 - - - - - - -
20/01:30pm 24.4 ENE 9 12 1022.9 - 0.0 - - - - - - -
20/01:00pm 24.1 ENE 11 14 1023.1 - 0.0 - - - - - - -
20/12:30pm 23.6 E 11 16 1023.4 - 0.0 - - - - - - -
20/12:00pm 21.6 E 11 17 1023.9 - 0.0 - - - - - - -
20/11:30am 19.7 ESE 11 16 1024.2 - 0.0 - - - - - - -
20/11:00am 18.5 ESE 11 15 1024.3 - 0.0 - - - - - - -
20/10:30am 16.8 ESE 9 15 1024.4 - 0.0 - - - - - - -
20/10:00am 16.3 ESE 14 22 1023.7 - 0.0 - - - - - - -

Other Formats:

Comma delimited format used in spreadsheet applications
http://www.bom.gov.au/fwo/IDT60701/IDT60701.95805.axf

JavaScript Object Notation format (JSON) in row-major order
http://www.bom.gov.au/fwo/IDT60701/IDT60701.95805.json